sensor_id;sensor_type;location;lat;lon;timestamp;pressure;altitude;pressure_sealevel;temperature
76713;BMP280;65640;43.154;25.658;2023-04-24T00:01:47;100387.97;;;13.11
76713;BMP280;65640;43.154;25.658;2023-04-24T00:04:13;100391.53;;;13.01
76713;BMP280;65640;43.154;25.658;2023-04-24T00:06:41;100390.13;;;12.90
76713;BMP280;65640;43.154;25.658;2023-04-24T00:09:08;100383.94;;;12.81
76713;BMP280;65640;43.154;25.658;2023-04-24T00:11:36;100384.53;;;12.78
76713;BMP280;65640;43.154;25.658;2023-04-24T00:14:02;100377.22;;;12.75
76713;BMP280;65640;43.154;25.658;2023-04-24T00:16:27;100372.47;;;12.77
76713;BMP280;65640;43.154;25.658;2023-04-24T00:18:53;100379.03;;;12.74
76713;BMP280;65640;43.154;25.658;2023-04-24T00:21:19;100377.22;;;12.75
76713;BMP280;65640;43.154;25.658;2023-04-24T00:23:45;100377.13;;;12.80
76713;BMP280;65640;43.154;25.658;2023-04-24T00:26:11;100378.63;;;12.86
76713;BMP280;65640;43.154;25.658;2023-04-24T00:28:36;100372.78;;;12.89
76713;BMP280;65640;43.154;25.658;2023-04-24T00:31:01;100373.56;;;12.89
76713;BMP280;65640;43.154;25.658;2023-04-24T00:33:27;100378.03;;;12.89
76713;BMP280;65640;43.154;25.658;2023-04-24T00:35:52;100370.97;;;12.71
76713;BMP280;65640;43.154;25.658;2023-04-24T00:38:18;100373.94;;;12.64
76713;BMP280;65640;43.154;25.658;2023-04-24T00:40:44;100366.78;;;12.51
76713;BMP280;65640;43.154;25.658;2023-04-24T00:43:09;100373.88;;;12.50
76713;BMP280;65640;43.154;25.658;2023-04-24T00:45:35;100376.50;;;12.50
76713;BMP280;65640;43.154;25.658;2023-04-24T00:48:01;100369.63;;;12.36
76713;BMP280;65640;43.154;25.658;2023-04-24T00:50:27;100375.53;;;12.23
76713;BMP280;65640;43.154;25.658;2023-04-24T00:52:53;100382.72;;;12.17
76713;BMP280;65640;43.154;25.658;2023-04-24T00:55:19;100381.25;;;12.06
76713;BMP280;65640;43.154;25.658;2023-04-24T00:57:45;100386.81;;;11.99
76713;BMP280;65640;43.154;25.658;2023-04-24T01:00:10;100381.56;;;11.76
76713;BMP280;65640;43.154;25.658;2023-04-24T01:02:41;100385.88;;;11.66
76713;BMP280;65640;43.154;25.658;2023-04-24T01:05:13;100377.50;;;11.59
76713;BMP280;65640;43.154;25.658;2023-04-24T01:07:41;100388.59;;;11.22
76713;BMP280;65640;43.154;25.658;2023-04-24T01:10:11;100387.31;;;10.81
76713;BMP280;65640;43.154;25.658;2023-04-24T01:12:37;100381.97;;;10.47
76713;BMP280;65640;43.154;25.658;2023-04-24T01:15:03;100385.69;;;10.26
76713;BMP280;65640;43.154;25.658;2023-04-24T01:17:29;100383.59;;;10.28
76713;BMP280;65640;43.154;25.658;2023-04-24T01:19:55;100395.97;;;10.12
76713;BMP280;65640;43.154;25.658;2023-04-24T01:22:22;100390.16;;;10.20
76713;BMP280;65640;43.154;25.658;2023-04-24T01:24:47;100386.75;;;10.20
76713;BMP280;65640;43.154;25.658;2023-04-24T01:27:13;100379.97;;;10.19
76713;BMP280;65640;43.154;25.658;2023-04-24T01:29:39;100383.66;;;10.13
76713;BMP280;65640;43.154;25.658;2023-04-24T01:32:05;100379.25;;;10.08
76713;BMP280;65640;43.154;25.658;2023-04-24T01:34:31;100381.03;;;10.13
76713;BMP280;65640;43.154;25.658;2023-04-24T01:36:57;100376.09;;;10.06
76713;BMP280;65640;43.154;25.658;2023-04-24T01:39:22;100381.84;;;10.03
76713;BMP280;65640;43.154;25.658;2023-04-24T01:41:51;100372.97;;;9.99
76713;BMP280;65640;43.154;25.658;2023-04-24T01:44:18;100365.38;;;9.97
76713;BMP280;65640;43.154;25.658;2023-04-24T01:46:43;100370.91;;;9.86
76713;BMP280;65640;43.154;25.658;2023-04-24T01:49:09;100361.75;;;9.83
76713;BMP280;65640;43.154;25.658;2023-04-24T01:51:34;100369.31;;;9.85
76713;BMP280;65640;43.154;25.658;2023-04-24T01:54:00;100356.75;;;9.97
76713;BMP280;65640;43.154;25.658;2023-04-24T01:56:28;100357.28;;;9.99
76713;BMP280;65640;43.154;25.658;2023-04-24T01:58:54;100353.34;;;9.96
76713;BMP280;65640;43.154;25.658;2023-04-24T02:01:20;100358.31;;;9.98
76713;BMP280;65640;43.154;25.658;2023-04-24T02:03:46;100359.09;;;9.98
76713;BMP280;65640;43.154;25.658;2023-04-24T02:06:12;100348.38;;;10.00
76713;BMP280;65640;43.154;25.658;2023-04-24T02:08:37;100350.47;;;10.03
76713;BMP280;65640;43.154;25.658;2023-04-24T02:11:03;100348.91;;;10.07
76713;BMP280;65640;43.154;25.658;2023-04-24T02:13:28;100346.00;;;10.14
76713;BMP280;65640;43.154;25.658;2023-04-24T02:15:54;100339.38;;;10.26
76713;BMP280;65640;43.154;25.658;2023-04-24T02:18:19;100340.19;;;10.32
76713;BMP280;65640;43.154;25.658;2023-04-24T02:20:45;100332.06;;;10.33
76713;BMP280;65640;43.154;25.658;2023-04-24T02:23:10;100338.59;;;10.31
76713;BMP280;65640;43.154;25.658;2023-04-24T02:25:36;100332.59;;;10.30
76713;BMP280;65640;43.154;25.658;2023-04-24T02:28:01;100330.78;;;10.21
76713;BMP280;65640;43.154;25.658;2023-04-24T02:30:28;100337.84;;;10.20
76713;BMP280;65640;43.154;25.658;2023-04-24T02:32:53;100335.03;;;10.06
76713;BMP280;65640;43.154;25.658;2023-04-24T02:35:19;100325.16;;;9.83
76713;BMP280;65640;43.154;25.658;2023-04-24T02:37:45;100333.81;;;9.74
76713;BMP280;65640;43.154;25.658;2023-04-24T02:40:10;100327.81;;;9.53
76713;BMP280;65640;43.154;25.658;2023-04-24T02:42:36;100323.13;;;9.45
76713;BMP280;65640;43.154;25.658;2023-04-24T02:45:01;100326.25;;;9.32
76713;BMP280;65640;43.154;25.658;2023-04-24T02:47:27;100330.44;;;9.27
76713;BMP280;65640;43.154;25.658;2023-04-24T02:49:52;100325.75;;;9.09
76713;BMP280;65640;43.154;25.658;2023-04-24T02:52:17;100331.47;;;9.01
76713;BMP280;65640;43.154;25.658;2023-04-24T02:54:43;100329.09;;;9.05
76713;BMP280;65640;43.154;25.658;2023-04-24T02:57:08;100320.25;;;8.96
76713;BMP280;65640;43.154;25.658;2023-04-24T02:59:34;100320.25;;;8.96
76713;BMP280;65640;43.154;25.658;2023-04-24T03:01:59;100323.09;;;8.89
76713;BMP280;65640;43.154;25.658;2023-04-24T03:04:25;100325.72;;;8.89
76713;BMP280;65640;43.154;25.658;2023-04-24T03:06:51;100323.63;;;8.96
76713;BMP280;65640;43.154;25.658;2023-04-24T03:09:18;100322.59;;;8.97
76713;BMP280;65640;43.154;25.658;2023-04-24T03:11:43;100319.44;;;8.95
76713;BMP280;65640;43.154;25.658;2023-04-24T03:14:08;100319.97;;;8.87
76713;BMP280;65640;43.154;25.658;2023-04-24T03:16:34;100326.22;;;8.86
76713;BMP280;65640;43.154;25.658;2023-04-24T03:18:59;100332.50;;;8.90
76713;BMP280;65640;43.154;25.658;2023-04-24T03:21:25;100331.44;;;8.91
76713;BMP280;65640;43.154;25.658;2023-04-24T03:23:51;100335.66;;;8.97
76713;BMP280;65640;43.154;25.658;2023-04-24T03:26:17;100338.22;;;8.92
76713;BMP280;65640;43.154;25.658;2023-04-24T03:28:42;100334.59;;;8.93
76713;BMP280;65640;43.154;25.658;2023-04-24T03:31:08;100333.78;;;8.88
76713;BMP280;65640;43.154;25.658;2023-04-24T03:33:33;100342.38;;;8.83
76713;BMP280;65640;43.154;25.658;2023-04-24T03:35:58;100336.94;;;8.90
76713;BMP280;65640;43.154;25.658;2023-04-24T03:38:24;100340.34;;;8.95
76713;BMP280;65640;43.154;25.658;2023-04-24T03:40:50;100341.63;;;8.93
76713;BMP280;65640;43.154;25.658;2023-04-24T03:43:15;100340.84;;;8.77
76713;BMP280;65640;43.154;25.658;2023-04-24T03:45:40;100334.00;;;8.61
76713;BMP280;65640;43.154;25.658;2023-04-24T03:48:06;100341.31;;;8.69
76713;BMP280;65640;43.154;25.658;2023-04-24T03:50:32;100341.88;;;8.76
76713;BMP280;65640;43.154;25.658;2023-04-24T03:52:58;100339.78;;;8.83
76713;BMP280;65640;43.154;25.658;2023-04-24T03:55:23;100339.81;;;8.88
76713;BMP280;65640;43.154;25.658;2023-04-24T03:57:49;100336.94;;;8.95
76713;BMP280;65640;43.154;25.658;2023-04-24T04:00:14;100335.41;;;8.99
76713;BMP280;65640;43.154;25.658;2023-04-24T04:02:40;100331.47;;;9.06
76713;BMP280;65640;43.154;25.658;2023-04-24T04:05:06;100337.72;;;9.10
76713;BMP280;65640;43.154;25.658;2023-04-24T04:07:33;100338.25;;;9.12
76713;BMP280;65640;43.154;25.658;2023-04-24T04:09:58;100335.41;;;9.14
76713;BMP280;65640;43.154;25.658;2023-04-24T04:12:24;100342.47;;;9.18
76713;BMP280;65640;43.154;25.658;2023-04-24T04:14:49;100338.81;;;9.24
76713;BMP280;65640;43.154;25.658;2023-04-24T04:17:15;100341.41;;;9.40
76713;BMP280;65640;43.154;25.658;2023-04-24T04:19:40;100348.69;;;9.48
76713;BMP280;65640;43.154;25.658;2023-04-24T04:22:06;100349.75;;;9.52
76713;BMP280;65640;43.154;25.658;2023-04-24T04:24:33;100349.50;;;9.63
76713;BMP280;65640;43.154;25.658;2023-04-24T04:26:59;100356.03;;;9.66
76713;BMP280;65640;43.154;25.658;2023-04-24T04:29:25;100358.63;;;9.81
76713;BMP280;65640;43.154;25.658;2023-04-24T04:31:51;100356.53;;;9.88
76713;BMP280;65640;43.154;25.658;2023-04-24T04:34:17;100355.94;;;10.12
76713;BMP280;65640;43.154;25.658;2023-04-24T04:36:43;100345.41;;;10.32
76713;BMP280;65640;43.154;25.658;2023-04-24T04:39:09;100345.56;;;10.51
76713;BMP280;65640;43.154;25.658;2023-04-24T04:41:34;100349.66;;;10.72
76713;BMP280;65640;43.154;25.658;2023-04-24T04:44:01;100345.56;;;10.95
76713;BMP280;65640;43.154;25.658;2023-04-24T04:46:26;100350.91;;;11.18
76713;BMP280;65640;43.154;25.658;2023-04-24T04:48:53;100355.22;;;11.33
76713;BMP280;65640;43.154;25.658;2023-04-24T04:51:19;100362.88;;;11.53
76713;BMP280;65640;43.154;25.658;2023-04-24T04:53:44;100364.75;;;11.82
76713;BMP280;65640;43.154;25.658;2023-04-24T04:56:10;100372.91;;;11.99
76713;BMP280;65640;43.154;25.658;2023-04-24T04:58:35;100372.84;;;12.04
76713;BMP280;65640;43.154;25.658;2023-04-24T05:01:01;100366.25;;;11.88
76713;BMP280;65640;43.154;25.658;2023-04-24T05:03:27;100365.03;;;11.75
76713;BMP280;65640;43.154;25.658;2023-04-24T05:05:53;100371.66;;;11.73
76713;BMP280;65640;43.154;25.658;2023-04-24T05:08:18;100368.31;;;11.67
76713;BMP280;65640;43.154;25.658;2023-04-24T05:10:43;100360.25;;;11.58
76713;BMP280;65640;43.154;25.658;2023-04-24T05:13:09;100358.78;;;11.47
76713;BMP280;65640;43.154;25.658;2023-04-24T05:15:34;100361.16;;;11.73
76713;BMP280;65640;43.154;25.658;2023-04-24T05:18:00;100350.78;;;12.10
76713;BMP280;65640;43.154;25.658;2023-04-24T05:20:25;100356.84;;;12.48
76713;BMP280;65640;43.154;25.658;2023-04-24T05:22:51;100365.22;;;12.69
76713;BMP280;65640;43.154;25.658;2023-04-24T05:25:16;100360.53;;;12.84
76713;BMP280;65640;43.154;25.658;2023-04-24T05:27:42;100359.50;;;12.99
76713;BMP280;65640;43.154;25.658;2023-04-24T05:30:07;100354.41;;;13.21
76713;BMP280;65640;43.154;25.658;2023-04-24T05:32:34;100356.69;;;13.41
76713;BMP280;65640;43.154;25.658;2023-04-24T05:35:00;100350.56;;;13.73
76713;BMP280;65640;43.154;25.658;2023-04-24T05:37:25;100355.81;;;14.01
76713;BMP280;65640;43.154;25.658;2023-04-24T05:39:51;100346.81;;;14.15
76713;BMP280;65640;43.154;25.658;2023-04-24T05:42:16;100338.88;;;14.29
76713;BMP280;65640;43.154;25.658;2023-04-24T05:44:42;100344.44;;;14.41
76713;BMP280;65640;43.154;25.658;2023-04-24T05:47:07;100348.78;;;14.68
76713;BMP280;65640;43.154;25.658;2023-04-24T05:49:32;100347.00;;;14.77
76713;BMP280;65640;43.154;25.658;2023-04-24T05:51:58;100338.72;;;14.92
76713;BMP280;65640;43.154;25.658;2023-04-24T05:54:23;100341.47;;;15.09
76713;BMP280;65640;43.154;25.658;2023-04-24T05:56:49;100341.25;;;15.37
76713;BMP280;65640;43.154;25.658;2023-04-24T05:59:15;100338.16;;;15.35
76713;BMP280;65640;43.154;25.658;2023-04-24T06:01:41;100335.63;;;15.21
76713;BMP280;65640;43.154;25.658;2023-04-24T06:04:07;100342.88;;;15.15
76713;BMP280;65640;43.154;25.658;2023-04-24T06:06:32;100338.97;;;15.44
76713;BMP280;65640;43.154;25.658;2023-04-24T06:08:58;100340.00;;;15.82
76713;BMP280;65640;43.154;25.658;2023-04-24T06:11:24;100329.94;;;16.01
76713;BMP280;65640;43.154;25.658;2023-04-24T06:13:50;100333.22;;;16.16
76713;BMP280;65640;43.154;25.658;2023-04-24T06:16:15;100327.28;;;16.44
76713;BMP280;65640;43.154;25.658;2023-04-24T06:18:41;100329.75;;;16.67
76713;BMP280;65640;43.154;25.658;2023-04-24T06:21:06;100326.63;;;16.56
76713;BMP280;65640;43.154;25.658;2023-04-24T06:23:31;100329.00;;;16.40
76713;BMP280;65640;43.154;25.658;2023-04-24T06:25:58;100336.94;;;16.23
76713;BMP280;65640;43.154;25.658;2023-04-24T06:28:24;100330.53;;;16.24
76713;BMP280;65640;43.154;25.658;2023-04-24T06:30:49;100323.56;;;16.54
76713;BMP280;65640;43.154;25.658;2023-04-24T06:33:16;100325.03;;;16.89
76713;BMP280;65640;43.154;25.658;2023-04-24T06:35:41;100318.97;;;17.18
76713;BMP280;65640;43.154;25.658;2023-04-24T06:38:06;100327.34;;;17.29
76713;BMP280;65640;43.154;25.658;2023-04-24T06:40:32;100324.75;;;17.49
76713;BMP280;65640;43.154;25.658;2023-04-24T06:42:58;100321.16;;;17.75
76713;BMP280;65640;43.154;25.658;2023-04-24T06:45:25;100323.72;;;17.83
76713;BMP280;65640;43.154;25.658;2023-04-24T06:47:51;100314.88;;;18.00
76713;BMP280;65640;43.154;25.658;2023-04-24T06:50:16;100320.34;;;18.16
76713;BMP280;65640;43.154;25.658;2023-04-24T06:52:42;100320.19;;;18.33
76713;BMP280;65640;43.154;25.658;2023-04-24T06:55:07;100318.78;;;18.35
76713;BMP280;65640;43.154;25.658;2023-04-24T06:57:33;100311.09;;;18.55
76713;BMP280;65640;43.154;25.658;2023-04-24T06:59:59;100315.22;;;18.64
76713;BMP280;65640;43.154;25.658;2023-04-24T07:02:24;100313.31;;;18.65
76713;BMP280;65640;43.154;25.658;2023-04-24T07:04:50;100327.72;;;18.88
76713;BMP280;65640;43.154;25.658;2023-04-24T07:07:15;100325.28;;;19.07
76713;BMP280;65640;43.154;25.658;2023-04-24T07:09:42;100334.00;;;19.20
76713;BMP280;65640;43.154;25.658;2023-04-24T07:12:08;100332.59;;;19.34
76713;BMP280;65640;43.154;25.658;2023-04-24T07:14:35;100328.25;;;19.54
76713;BMP280;65640;43.154;25.658;2023-04-24T07:17:02;100326.88;;;19.60
76713;BMP280;65640;43.154;25.658;2023-04-24T07:19:28;100324.84;;;19.81
76713;BMP280;65640;43.154;25.658;2023-04-24T07:21:53;100329.06;;;19.70
76713;BMP280;65640;43.154;25.658;2023-04-24T07:24:20;100321.66;;;20.04
76713;BMP280;65640;43.154;25.658;2023-04-24T07:26:46;100315.94;;;20.33
76713;BMP280;65640;43.154;25.658;2023-04-24T07:29:12;100320.78;;;20.59
76713;BMP280;65640;43.154;25.658;2023-04-24T07:31:39;100310.56;;;20.61
76713;BMP280;65640;43.154;25.658;2023-04-24T07:34:06;100304.53;;;20.79
76713;BMP280;65640;43.154;25.658;2023-04-24T07:36:31;100307.19;;;20.79
76713;BMP280;65640;43.154;25.658;2023-04-24T07:38:57;100303.88;;;20.67
76713;BMP280;65640;43.154;25.658;2023-04-24T07:41:22;100307.72;;;20.69
76713;BMP280;65640;43.154;25.658;2023-04-24T07:43:49;100311.16;;;20.38
76713;BMP280;65640;43.154;25.658;2023-04-24T07:46:14;100319.16;;;20.11
76713;BMP280;65640;43.154;25.658;2023-04-24T07:48:40;100308.38;;;19.76
76713;BMP280;65640;43.154;25.658;2023-04-24T07:51:07;100307.44;;;19.56
76713;BMP280;65640;43.154;25.658;2023-04-24T07:53:35;100312.78;;;19.72
76713;BMP280;65640;43.154;25.658;2023-04-24T07:56:00;100310.28;;;20.19
76713;BMP280;65640;43.154;25.658;2023-04-24T07:58:26;100304.91;;;20.62
76713;BMP280;65640;43.154;25.658;2023-04-24T08:00:51;100304.94;;;21.13
76713;BMP280;65640;43.154;25.658;2023-04-24T08:03:16;100302.00;;;21.56
76713;BMP280;65640;43.154;25.658;2023-04-24T08:05:44;100301.16;;;21.52
76713;BMP280;65640;43.154;25.658;2023-04-24T08:08:10;100303.22;;;21.05
76713;BMP280;65640;43.154;25.658;2023-04-24T08:10:35;100299.22;;;20.79
76713;BMP280;65640;43.154;25.658;2023-04-24T08:13:01;100299.81;;;20.57
76713;BMP280;65640;43.154;25.658;2023-04-24T08:15:27;100298.81;;;20.46
76713;BMP280;65640;43.154;25.658;2023-04-24T08:17:53;100295.97;;;20.39
76713;BMP280;65640;43.154;25.658;2023-04-24T08:20:18;100296.28;;;20.53
76713;BMP280;65640;43.154;25.658;2023-04-24T08:22:44;100291.84;;;20.88
76713;BMP280;65640;43.154;25.658;2023-04-24T08:25:10;100290.22;;;20.68
76713;BMP280;65640;43.154;25.658;2023-04-24T08:27:36;100286.34;;;20.66
76713;BMP280;65640;43.154;25.658;2023-04-24T08:30:06;100282.72;;;20.74
76713;BMP280;65640;43.154;25.658;2023-04-24T08:32:31;100285.69;;;21.04
76713;BMP280;65640;43.154;25.658;2023-04-24T08:34:58;100290.25;;;21.03
76713;BMP280;65640;43.154;25.658;2023-04-24T08:37:24;100291.34;;;21.18
76713;BMP280;65640;43.154;25.658;2023-04-24T08:39:50;100286.69;;;21.15
76713;BMP280;65640;43.154;25.658;2023-04-24T08:42:17;100284.59;;;21.24
76713;BMP280;65640;43.154;25.658;2023-04-24T08:44:43;100284.25;;;21.64
76713;BMP280;65640;43.154;25.658;2023-04-24T08:47:10;100283.78;;;22.00
76713;BMP280;65640;43.154;25.658;2023-04-24T08:49:36;100279.88;;;22.39
76713;BMP280;65640;43.154;25.658;2023-04-24T08:52:02;100284.25;;;22.77
76713;BMP280;65640;43.154;25.658;2023-04-24T08:54:28;100274.84;;;22.87
76713;BMP280;65640;43.154;25.658;2023-04-24T08:56:59;100274.94;;;22.94
76713;BMP280;65640;43.154;25.658;2023-04-24T08:59:27;100273.38;;;22.89
76713;BMP280;65640;43.154;25.658;2023-04-24T09:01:53;100277.53;;;23.17
76713;BMP280;65640;43.154;25.658;2023-04-24T09:04:20;100279.59;;;23.30
76713;BMP280;65640;43.154;25.658;2023-04-24T09:06:48;100270.56;;;23.45
76713;BMP280;65640;43.154;25.658;2023-04-24T09:09:16;100276.63;;;23.76
76713;BMP280;65640;43.154;25.658;2023-04-24T09:11:42;100268.56;;;23.72
76713;BMP280;65640;43.154;25.658;2023-04-24T09:14:09;100269.34;;;23.73
76713;BMP280;65640;43.154;25.658;2023-04-24T09:16:35;100267.97;;;23.89
76713;BMP280;65640;43.154;25.658;2023-04-24T09:19:01;100266.19;;;24.04
76713;BMP280;65640;43.154;25.658;2023-04-24T09:21:34;100257.59;;;24.28
76713;BMP280;65640;43.154;25.658;2023-04-24T09:24:03;100262.16;;;24.28
76713;BMP280;65640;43.154;25.658;2023-04-24T09:26:30;100269.09;;;24.32
76713;BMP280;65640;43.154;25.658;2023-04-24T09:28:57;100266.97;;;24.04
76713;BMP280;65640;43.154;25.658;2023-04-24T09:31:22;100265.97;;;23.79
76713;BMP280;65640;43.154;25.658;2023-04-24T09:33:59;100269.31;;;23.69
76713;BMP280;65640;43.154;25.658;2023-04-24T09:36:33;100264.56;;;23.52
76713;BMP280;65640;43.154;25.658;2023-04-24T09:39:00;100253.59;;;23.27
76713;BMP280;65640;43.154;25.658;2023-04-24T09:41:26;100254.16;;;23.10
76713;BMP280;65640;43.154;25.658;2023-04-24T09:43:56;100252.88;;;23.30
76713;BMP280;65640;43.154;25.658;2023-04-24T09:46:29;100243.75;;;23.72
76713;BMP280;65640;43.154;25.658;2023-04-24T09:48:55;100240.97;;;24.01
76713;BMP280;65640;43.154;25.658;2023-04-24T09:51:33;100245.25;;;24.13
76713;BMP280;65640;43.154;25.658;2023-04-24T09:54:00;100238.34;;;24.08
76713;BMP280;65640;43.154;25.658;2023-04-24T09:56:26;100237.56;;;24.12
76713;BMP280;65640;43.154;25.658;2023-04-24T09:58:51;100232.75;;;23.80
76713;BMP280;65640;43.154;25.658;2023-04-24T10:01:30;100235.13;;;23.48
76713;BMP280;65640;43.154;25.658;2023-04-24T10:03:55;100228.97;;;23.41
76713;BMP280;65640;43.154;25.658;2023-04-24T10:06:21;100227.44;;;23.10
76713;BMP280;65640;43.154;25.658;2023-04-24T10:08:48;100224.75;;;22.77
76713;BMP280;65640;43.154;25.658;2023-04-24T10:11:16;100232.34;;;22.75
76713;BMP280;65640;43.154;25.658;2023-04-24T10:13:42;100229.69;;;22.78
76713;BMP280;65640;43.154;25.658;2023-04-24T10:16:07;100223.97;;;22.76
76713;BMP280;65640;43.154;25.658;2023-04-24T10:18:33;100220.09;;;22.70
76713;BMP280;65640;43.154;25.658;2023-04-24T10:20:59;100222.81;;;22.74
76713;BMP280;65640;43.154;25.658;2023-04-24T10:23:25;100224.44;;;22.82
76713;BMP280;65640;43.154;25.658;2023-04-24T10:25:51;100223.34;;;22.86
76713;BMP280;65640;43.154;25.658;2023-04-24T10:28:19;100219.44;;;22.80
76713;BMP280;65640;43.154;25.658;2023-04-24T10:30:45;100217.22;;;22.86
76713;BMP280;65640;43.154;25.658;2023-04-24T10:33:11;100218.81;;;22.90
76713;BMP280;65640;43.154;25.658;2023-04-24T10:35:41;100218.97;;;23.05
76713;BMP280;65640;43.154;25.658;2023-04-24T10:38:14;100217.53;;;23.11
76713;BMP280;65640;43.154;25.658;2023-04-24T10:40:42;100226.59;;;23.02
76713;BMP280;65640;43.154;25.658;2023-04-24T10:43:08;100225.19;;;23.12
76713;BMP280;65640;43.154;25.658;2023-04-24T10:45:37;100214.78;;;23.37
76713;BMP280;65640;43.154;25.658;2023-04-24T10:48:09;100212.97;;;23.48
76713;BMP280;65640;43.154;25.658;2023-04-24T10:50:52;100207.97;;;23.46
76713;BMP280;65640;43.154;25.658;2023-04-24T10:53:20;100220.56;;;23.09
76713;BMP280;65640;43.154;25.658;2023-04-24T10:55:59;100212.47;;;23.02
76713;BMP280;65640;43.154;25.658;2023-04-24T10:58:50;100212.03;;;23.30
76713;BMP280;65640;43.154;25.658;2023-04-24T11:01:25;100213.22;;;23.76
76713;BMP280;65640;43.154;25.658;2023-04-24T11:03:58;100204.09;;;24.32
76713;BMP280;65640;43.154;25.658;2023-04-24T11:06:34;100198.19;;;24.84
76713;BMP280;65640;43.154;25.658;2023-04-24T11:09:08;100198.56;;;24.79
76713;BMP280;65640;43.154;25.658;2023-04-24T11:11:36;100205.44;;;24.04
76713;BMP280;65640;43.154;25.658;2023-04-24T11:14:04;100191.91;;;23.83
76713;BMP280;65640;43.154;25.658;2023-04-24T11:19:08;100186.81;;;23.71
76713;BMP280;65640;43.154;25.658;2023-04-24T11:21:44;100189.44;;;24.15
76713;BMP280;65640;43.154;25.658;2023-04-24T11:24:26;100186.41;;;24.17
76713;BMP280;65640;43.154;25.658;2023-04-24T11:27:16;100184.81;;;24.05
76713;BMP280;65640;43.154;25.658;2023-04-24T11:32:37;100177.16;;;24.10
76713;BMP280;65640;43.154;25.658;2023-04-24T11:35:20;100164.56;;;24.07
76713;BMP280;65640;43.154;25.658;2023-04-24T11:37:48;100163.56;;;24.30
76713;BMP280;65640;43.154;25.658;2023-04-24T11:40:15;100158.38;;;24.72
76713;BMP280;65640;43.154;25.658;2023-04-24T11:42:45;100157.25;;;24.87
76713;BMP280;65640;43.154;25.658;2023-04-24T11:47:38;100150.97;;;24.41
76713;BMP280;65640;43.154;25.658;2023-04-24T11:50:04;100148.25;;;24.30
76713;BMP280;65640;43.154;25.658;2023-04-24T11:52:30;100139.91;;;24.46
76713;BMP280;65640;43.154;25.658;2023-04-24T11:54:56;100142.69;;;24.71
76713;BMP280;65640;43.154;25.658;2023-04-24T11:57:24;100146.97;;;24.93
76713;BMP280;65640;43.154;25.658;2023-04-24T11:59:51;100149.97;;;24.81
76713;BMP280;65640;43.154;25.658;2023-04-24T12:02:24;100138.03;;;24.53
76713;BMP280;65640;43.154;25.658;2023-04-24T12:04:50;100132.44;;;24.11
76713;BMP280;65640;43.154;25.658;2023-04-24T12:07:16;100135.78;;;23.94
76713;BMP280;65640;43.154;25.658;2023-04-24T12:09:42;100125.75;;;23.77
76713;BMP280;65640;43.154;25.658;2023-04-24T12:12:08;100136.22;;;23.48
76713;BMP280;65640;43.154;25.658;2023-04-24T12:14:45;100123.72;;;23.16
76713;BMP280;65640;43.154;25.658;2023-04-24T12:17:12;100123.25;;;23.07
76713;BMP280;65640;43.154;25.658;2023-04-24T12:19:37;100122.94;;;23.12
76713;BMP280;65640;43.154;25.658;2023-04-24T12:22:05;100115.69;;;23.16
76713;BMP280;65640;43.154;25.658;2023-04-24T12:24:31;100117.19;;;23.13
76713;BMP280;65640;43.154;25.658;2023-04-24T12:26:57;100116.78;;;23.08
76713;BMP280;65640;43.154;25.658;2023-04-24T12:29:23;100116.72;;;23.04
76713;BMP280;65640;43.154;25.658;2023-04-24T12:31:50;100103.78;;;23.06
76713;BMP280;65640;43.154;25.658;2023-04-24T12:34:25;100106.19;;;23.18
76713;BMP280;65640;43.154;25.658;2023-04-24T12:36:51;100098.59;;;23.24
76713;BMP280;65640;43.154;25.658;2023-04-24T12:39:18;100099.16;;;23.47
76713;BMP280;65640;43.154;25.658;2023-04-24T12:41:54;100084.41;;;23.67
76713;BMP280;65640;43.154;25.658;2023-04-24T12:44:31;100078.06;;;23.89
76713;BMP280;65640;43.154;25.658;2023-04-24T12:47:00;100067.75;;;23.84
76713;BMP280;65640;43.154;25.658;2023-04-24T12:49:25;100069.69;;;23.87
76713;BMP280;65640;43.154;25.658;2023-04-24T12:51:51;100064.66;;;23.79
76713;BMP280;65640;43.154;25.658;2023-04-24T12:54:16;100063.19;;;23.85
76713;BMP280;65640;43.154;25.658;2023-04-24T12:56:41;100061.72;;;24.01
76713;BMP280;65640;43.154;25.658;2023-04-24T12:59:07;100055.00;;;24.43
76713;BMP280;65640;43.154;25.658;2023-04-24T13:01:32;100047.00;;;24.64
76713;BMP280;65640;43.154;25.658;2023-04-24T13:03:58;100045.06;;;24.47
76713;BMP280;65640;43.154;25.658;2023-04-24T13:06:23;100038.97;;;24.57
76713;BMP280;65640;43.154;25.658;2023-04-24T13:08:49;100032.78;;;24.39
76713;BMP280;65640;43.154;25.658;2023-04-24T13:11:14;100037.63;;;23.98
76713;BMP280;65640;43.154;25.658;2023-04-24T13:13:40;100030.19;;;23.60
76713;BMP280;65640;43.154;25.658;2023-04-24T13:16:05;100029.03;;;23.61
76713;BMP280;65640;43.154;25.658;2023-04-24T13:18:30;100023.06;;;23.88
76713;BMP280;65640;43.154;25.658;2023-04-24T13:20:56;100032.22;;;23.84
76713;BMP280;65640;43.154;25.658;2023-04-24T13:23:22;100024.00;;;23.52
76713;BMP280;65640;43.154;25.658;2023-04-24T13:25:48;100026.16;;;23.32
76713;BMP280;65640;43.154;25.658;2023-04-24T13:28:13;100026.06;;;23.76
76713;BMP280;65640;43.154;25.658;2023-04-24T13:30:39;100011.38;;;24.39
76713;BMP280;65640;43.154;25.658;2023-04-24T13:33:04;100009.13;;;24.44
76713;BMP280;65640;43.154;25.658;2023-04-24T13:35:30;100013.13;;;23.92
76713;BMP280;65640;43.154;25.658;2023-04-24T13:37:56;100007.22;;;23.55
76713;BMP280;65640;43.154;25.658;2023-04-24T13:40:21;100009.44;;;23.46
76713;BMP280;65640;43.154;25.658;2023-04-24T13:42:46;100005.84;;;23.89
76713;BMP280;65640;43.154;25.658;2023-04-24T13:45:12;99995.72;;;24.41
76713;BMP280;65640;43.154;25.658;2023-04-24T13:47:37;100003.06;;;24.76
76713;BMP280;65640;43.154;25.658;2023-04-24T13:50:07;99996.94;;;24.89
76713;BMP280;65640;43.154;25.658;2023-04-24T13:52:33;99995.41;;;24.95